Huvudsida
METAR-TAF:

METAR-TAF

Flygplatser :

Ürümqi Diwopu International Airport

Ürümqi, Kina

latitud: 43-54N, longitud: 087-28E, höjd: 654 m

Aktuellt väderrapport

Denna rapport gjordes för 19 minuter sedan, klockan 13:30 UTC
Vind 4 kt från nord
Temperatur 28°C
Fuktighet 20%
Tryck 1007 hPa
Sikt 10 km eller mer
Få moln på en höjd av 4000 ft, Cumulonimbus.

METAR: ZWWW 271330Z 01002MPS 9999 FEW040CB 28/03 Q1007 NOSIG

Tid: 19:49 (13:49 UTC)

Väderprognos

Denna rapport gjordes för 4 timmar och 47 minuter sedan, klockan 09:02 UTC
Prognos gäller från 27 kl. 12 UTC till 28 kl. 12 UTC
Vind 8 kt från ost/nordost
Sikt 10 km eller mer
Inga moln under 1 500 m eller inga cumulonimbus
Blir
från 27 kl. 13 UTC till 27 kl. 14 UTC
Vind 8 kt från syd/sydost i byarna ända upp till 19 kt
Blir
från 28 kl. 03 UTC till 28 kl. 04 UTC
Vind 8 kt från nord

TAF: ZWWW 270902Z 2712/2812 06004MPS CAVOK TX35/2809Z TN20/2723Z BECMG 2713/2714 16004G10MPS BECMG 2803/2804 36004MPS

Aktuella väderrapporter och prognoser från 4000 flygplatser (METAR- och TAF-rapporter).

De tillgängliga stationerna syns som gula och röda prickar på kartan.

För musen över prickarna för att se namnen på stationerna.

Klicka sedan för att få väderrapporter och prognoser.

För att ändra kartan: Klicka på de gröna knapparna med ett svart kors på för att zooma in; den gröna knappen med ett streck på för att zooma ut; eller på de gröna pilarna för angränsande kartor.


METAR-TAF: